createdAt,value
2022-09-03T00:04:06.718Z,17.20
2022-09-03T00:08:15.452Z,17.20
2022-09-03T00:12:24.863Z,17.20
2022-09-03T00:16:34.898Z,17.10
2022-09-03T00:20:43.248Z,17.00
2022-09-03T00:24:48.760Z,17.00
2022-09-03T00:28:56.651Z,16.90
2022-09-03T00:33:10.556Z,16.90
2022-09-03T00:37:15.371Z,16.90
2022-09-03T00:41:31.519Z,16.90
2022-09-03T00:45:44.941Z,16.80
2022-09-03T00:50:00.201Z,16.80
2022-09-03T00:54:13.588Z,16.80
2022-09-03T00:58:40.061Z,16.70
2022-09-03T01:03:05.217Z,16.70
2022-09-03T01:07:19.413Z,16.60
2022-09-03T01:11:29.829Z,16.60
2022-09-03T01:15:42.687Z,16.50
2022-09-03T01:20:15.431Z,16.50
2022-09-03T01:24:49.605Z,16.40
2022-09-03T01:29:07.459Z,16.40
2022-09-03T01:33:19.445Z,16.30
2022-09-03T01:37:33.079Z,16.20
2022-09-03T01:42:21.276Z,16.20
2022-09-03T01:46:30.583Z,16.10
2022-09-03T01:50:43.718Z,16.10
2022-09-03T01:54:59.492Z,16.00
2022-09-03T01:59:09.961Z,16.00
2022-09-03T02:03:16.278Z,16.00
2022-09-03T02:07:19.808Z,15.90
2022-09-03T02:11:22.942Z,15.80
2022-09-03T02:15:28.001Z,15.80
2022-09-03T02:19:34.426Z,15.70
2022-09-03T02:23:39.592Z,15.70
2022-09-03T02:27:43.019Z,15.70
2022-09-03T02:31:46.079Z,15.60
2022-09-03T02:35:50.396Z,15.60
2022-09-03T02:39:53.264Z,15.50
2022-09-03T02:44:02.545Z,15.60
2022-09-03T02:48:05.500Z,15.50
2022-09-03T02:52:12.280Z,15.50
2022-09-03T02:56:15.232Z,15.40
2022-09-03T03:00:18.966Z,15.40
2022-09-03T03:04:23.522Z,15.40
2022-09-03T03:08:30.234Z,15.30
2022-09-03T03:12:33.335Z,15.30
2022-09-03T03:16:36.783Z,15.30
2022-09-03T03:20:39.784Z,15.20
2022-09-03T03:24:43.937Z,15.20
2022-09-03T03:28:48.766Z,15.20
2022-09-03T03:32:54.565Z,15.10
2022-09-03T03:36:57.350Z,15.10
2022-09-03T03:41:07.314Z,15.10
2022-09-03T03:45:11.266Z,15.10
2022-09-03T03:49:14.037Z,15.10
2022-09-03T03:53:16.798Z,15.10
2022-09-03T03:57:22.541Z,15.10
2022-09-03T04:01:27.768Z,15.00
2022-09-03T04:05:33.716Z,15.00
2022-09-03T04:09:37.321Z,14.90
2022-09-03T04:13:42.858Z,14.90
2022-09-03T04:17:45.626Z,14.90
2022-09-03T04:21:48.441Z,14.90
2022-09-03T04:25:53.629Z,14.80
2022-09-03T04:29:57.957Z,14.80
2022-09-03T04:34:01.935Z,14.70
2022-09-03T04:38:04.694Z,14.70
2022-09-03T04:42:07.659Z,14.70
2022-09-03T04:46:17.608Z,14.70
2022-09-03T04:50:21.084Z,14.60
2022-09-03T04:54:34.750Z,14.50
2022-09-03T04:58:37.650Z,14.50
2022-09-03T05:02:42.442Z,14.40
2022-09-03T05:06:45.367Z,14.40
2022-09-03T05:10:48.143Z,14.40
2022-09-03T05:14:51.328Z,14.40
2022-09-03T05:18:56.723Z,14.40
2022-09-03T05:23:02.826Z,14.40
2022-09-03T05:27:05.682Z,14.40
2022-09-03T05:31:10.129Z,14.50
2022-09-03T05:35:14.295Z,14.50
2022-09-03T05:39:17.208Z,14.60
2022-09-03T05:43:20.068Z,14.70
2022-09-03T05:47:22.891Z,14.80
2022-09-03T05:51:27.201Z,15.00
2022-09-03T05:55:29.965Z,15.70
2022-09-03T05:59:32.733Z,15.90
2022-09-03T06:03:35.581Z,16.10
2022-09-03T06:07:43.989Z,16.30
2022-09-03T06:11:49.596Z,16.50
2022-09-03T06:15:57.723Z,16.60
2022-09-03T06:20:00.590Z,16.70
2022-09-03T06:24:05.132Z,16.80
2022-09-03T06:28:08.956Z,16.80
2022-09-03T06:32:11.711Z,16.70
2022-09-03T06:36:16.230Z,16.80
2022-09-03T06:40:22.672Z,16.90
2022-09-03T06:44:25.461Z,16.90
2022-09-03T06:48:29.251Z,17.00
2022-09-03T06:52:32.035Z,17.00
2022-09-03T06:56:40.204Z,17.10
2022-09-03T07:00:45.725Z,17.20
2022-09-03T07:04:49.863Z,17.20
2022-09-03T07:08:52.808Z,17.40
2022-09-03T07:12:57.045Z,17.60
2022-09-03T07:16:59.844Z,17.70
2022-09-03T07:21:04.705Z,17.80
2022-09-03T07:25:08.106Z,17.90
2022-09-03T07:29:17.002Z,17.90
2022-09-03T07:33:20.293Z,18.00
2022-09-03T07:37:23.070Z,18.20
2022-09-03T07:41:28.947Z,18.30
2022-09-03T07:45:34.125Z,18.70
2022-09-03T07:49:36.872Z,19.00
2022-09-03T07:53:39.622Z,19.10
2022-09-03T07:57:42.794Z,19.10
2022-09-03T08:01:46.865Z,19.30
2022-09-03T08:05:50.004Z,19.50
2022-09-03T08:09:52.718Z,19.70
2022-09-03T08:14:01.192Z,20.10
2022-09-03T08:18:05.983Z,20.50
2022-09-03T08:22:10.120Z,20.60
2022-09-03T08:26:13.728Z,20.90
2022-09-03T08:30:17.601Z,21.10
2022-09-03T08:34:21.899Z,21.50
2022-09-03T08:38:25.117Z,21.70
2022-09-03T08:42:44.222Z,22.00
2022-09-03T08:46:52.674Z,22.00
2022-09-03T08:51:00.726Z,22.20
2022-09-03T08:55:17.076Z,22.60
2022-09-03T08:59:22.043Z,22.60
2022-09-03T09:03:50.701Z,22.90
2022-09-03T09:08:03.234Z,23.10
2022-09-03T09:12:17.256Z,23.50
2022-09-03T09:16:29.280Z,23.50
2022-09-03T09:20:42.578Z,23.40
2022-09-03T09:24:48.729Z,23.50
2022-09-03T09:28:57.944Z,23.30
2022-09-03T09:33:01.015Z,23.30
2022-09-03T09:37:06.998Z,23.50
2022-09-03T09:41:12.447Z,23.50
2022-09-03T09:45:15.786Z,23.70
2022-09-03T09:49:32.022Z,24.00
2022-09-03T09:53:35.052Z,23.90
2022-09-03T09:57:40.317Z,24.10
2022-09-03T10:01:45.056Z,24.00
2022-09-03T10:06:01.355Z,23.90
2022-09-03T10:10:07.191Z,23.60
2022-09-03T10:14:18.513Z,23.90
2022-09-03T10:18:31.878Z,24.10
2022-09-03T10:22:57.153Z,24.20
2022-09-03T10:27:01.634Z,24.00
2022-09-03T10:31:36.527Z,24.30
2022-09-03T10:35:47.008Z,24.20
2022-09-03T10:40:10.241Z,24.40
2022-09-03T10:44:35.538Z,24.90
2022-09-03T10:48:51.280Z,25.40
2022-09-03T10:53:08.326Z,25.50
2022-09-03T10:57:20.669Z,25.50
2022-09-03T11:01:33.857Z,25.50
2022-09-03T11:05:42.685Z,25.20
2022-09-03T11:09:50.544Z,25.30
2022-09-03T11:13:58.299Z,25.60
2022-09-03T11:18:09.259Z,25.50
2022-09-03T11:22:16.257Z,25.80
2022-09-03T11:26:29.871Z,25.70
2022-09-03T11:30:41.198Z,25.50
2022-09-03T11:34:48.477Z,25.30
2022-09-03T11:38:52.780Z,25.20
2022-09-03T11:43:06.275Z,25.40
2022-09-03T11:47:17.649Z,25.50
2022-09-03T11:51:31.963Z,25.60
2022-09-03T11:55:53.427Z,25.60
2022-09-03T12:00:07.460Z,25.50
2022-09-03T12:04:15.803Z,25.40
2022-09-03T12:08:43.489Z,25.50
2022-09-03T12:12:58.389Z,25.60
2022-09-03T12:17:15.676Z,25.60
2022-09-03T12:21:18.874Z,25.80
2022-09-03T12:25:21.770Z,26.20
2022-09-03T12:29:28.235Z,26.40
2022-09-03T12:33:42.115Z,26.70
2022-09-03T12:42:12.408Z,26.80
2022-09-03T12:46:17.605Z,26.50
2022-09-03T12:50:22.707Z,26.30
2022-09-03T12:54:26.570Z,26.00
2022-09-03T12:58:35.537Z,25.70
2022-09-03T13:02:47.891Z,25.60
2022-09-03T13:06:56.404Z,25.50
2022-09-03T13:11:02.593Z,25.50
2022-09-03T13:15:11.629Z,25.80
2022-09-03T13:19:22.924Z,25.60
2022-09-03T13:23:38.033Z,25.60
2022-09-03T13:27:46.899Z,25.50
2022-09-03T13:31:54.313Z,25.80
2022-09-03T13:36:05.284Z,26.00
2022-09-03T13:40:17.141Z,25.90
2022-09-03T13:44:25.049Z,25.90
2022-09-03T13:48:51.736Z,25.90
2022-09-03T13:53:02.767Z,25.70
2022-09-03T13:57:08.506Z,25.60
2022-09-03T14:01:23.295Z,25.40
2022-09-03T14:05:42.516Z,25.30
2022-09-03T14:09:57.062Z,25.20
2022-09-03T14:14:12.322Z,25.10
2022-09-03T14:18:24.622Z,25.00
2022-09-03T14:22:46.022Z,25.00
2022-09-03T14:26:56.880Z,24.90
2022-09-03T14:31:10.185Z,24.80
2022-09-03T14:35:23.414Z,24.70
2022-09-03T14:39:34.424Z,24.60
2022-09-03T14:44:12.498Z,24.50
2022-09-03T14:48:37.161Z,24.40
2022-09-03T14:53:00.362Z,24.30
2022-09-03T14:57:15.802Z,24.30
2022-09-03T15:01:26.804Z,24.20
2022-09-03T15:05:43.368Z,24.20
2022-09-03T15:09:52.834Z,24.30
2022-09-03T15:14:06.778Z,24.30
2022-09-03T15:18:19.230Z,24.40
2022-09-03T15:22:36.146Z,24.60
2022-09-03T15:26:57.497Z,24.60
2022-09-03T15:31:05.646Z,24.80
2022-09-03T15:35:12.257Z,25.00
2022-09-03T15:39:22.711Z,25.00
2022-09-03T15:43:30.305Z,24.90
2022-09-03T15:47:51.484Z,24.90
2022-09-03T15:52:09.373Z,25.00
2022-09-03T15:56:19.380Z,25.00
2022-09-03T16:00:23.551Z,25.00
2022-09-03T16:04:40.010Z,24.90
2022-09-03T16:08:50.380Z,24.90
2022-09-03T16:13:02.012Z,24.70
2022-09-03T16:17:14.489Z,24.60
2022-09-03T16:21:29.584Z,24.50
2022-09-03T16:25:44.260Z,24.20
2022-09-03T16:29:58.883Z,24.10
2022-09-03T16:34:17.979Z,24.00
2022-09-03T16:38:32.175Z,24.00
2022-09-03T16:42:45.122Z,23.80
2022-09-03T16:46:54.501Z,23.70
2022-09-03T16:51:08.383Z,23.70
2022-09-03T16:55:22.583Z,23.70
2022-09-03T16:59:47.596Z,23.70
2022-09-03T17:04:22.874Z,23.60
2022-09-03T17:08:31.920Z,23.50
2022-09-03T17:12:42.129Z,23.40
2022-09-03T17:16:59.777Z,23.40
2022-09-03T17:21:23.892Z,23.20
2022-09-03T17:25:40.149Z,23.20
2022-09-03T17:30:03.506Z,23.10
2022-09-03T17:34:20.315Z,23.00
2022-09-03T17:38:39.126Z,22.90
2022-09-03T17:42:55.903Z,22.80
2022-09-03T17:47:12.038Z,22.70
2022-09-03T17:51:27.485Z,22.60
2022-09-03T17:55:36.018Z,22.60
2022-09-03T17:59:45.417Z,22.50
2022-09-03T18:03:53.744Z,22.50
2022-09-03T18:08:06.088Z,22.40
2022-09-03T18:12:12.761Z,22.30
2022-09-03T18:16:19.966Z,22.20
2022-09-03T18:20:43.655Z,22.20
2022-09-03T18:25:11.951Z,22.10
2022-09-03T18:29:34.998Z,22.00
2022-09-03T18:33:55.878Z,21.90
2022-09-03T18:38:16.482Z,21.90
2022-09-03T18:42:46.406Z,21.80
2022-09-03T18:48:02.107Z,21.70
2022-09-03T18:52:03.461Z,21.60
2022-09-03T18:56:33.698Z,21.50
2022-09-03T19:01:00.760Z,21.40
2022-09-03T19:05:34.678Z,21.30
2022-09-03T19:10:04.374Z,21.30
2022-09-03T19:14:35.979Z,21.20
2022-09-03T19:19:25.580Z,21.10
2022-09-03T19:23:46.054Z,21.00
2022-09-03T19:28:21.284Z,20.90
2022-09-03T19:32:53.410Z,20.90
2022-09-03T19:37:23.257Z,20.70
2022-09-03T19:41:50.165Z,20.60
2022-09-03T19:46:21.863Z,20.50
2022-09-03T19:50:48.198Z,20.30
2022-09-03T19:55:13.978Z,20.30
2022-09-03T19:59:38.314Z,20.10
2022-09-03T20:03:59.567Z,20.00
2022-09-03T20:08:20.378Z,19.90
2022-09-03T20:12:28.830Z,19.90
2022-09-03T20:16:38.454Z,19.80
2022-09-03T20:20:47.222Z,19.70
2022-09-03T20:25:02.585Z,19.60
2022-09-03T20:29:35.119Z,19.60
2022-09-03T20:33:50.798Z,19.50
2022-09-03T20:38:02.974Z,19.40
2022-09-03T20:42:23.034Z,19.40
2022-09-03T20:46:42.079Z,19.30
2022-09-03T20:50:56.541Z,19.20
2022-09-03T20:55:10.373Z,19.10
2022-09-03T20:59:21.625Z,19.00
2022-09-03T21:03:32.588Z,18.90
2022-09-03T21:07:48.156Z,18.90
2022-09-03T21:11:58.421Z,18.80
2022-09-03T21:16:21.986Z,18.70
2022-09-03T21:20:34.558Z,18.70
2022-09-03T21:24:46.206Z,18.60
2022-09-03T21:28:59.764Z,18.60
2022-09-03T21:33:07.325Z,18.60
2022-09-03T21:37:13.805Z,18.60
2022-09-03T21:41:24.584Z,18.50
2022-09-03T21:45:32.730Z,18.50
2022-09-03T21:49:59.281Z,18.40
2022-09-03T21:54:08.058Z,18.30
2022-09-03T21:58:20.100Z,18.20
2022-09-03T22:02:25.438Z,18.20
2022-09-03T22:06:35.466Z,18.10
2022-09-03T22:10:49.538Z,18.00
2022-09-03T22:14:56.006Z,18.00
2022-09-03T22:18:59.636Z,18.00
2022-09-03T22:23:05.885Z,17.90
2022-09-03T22:27:22.361Z,17.80
2022-09-03T22:31:36.005Z,17.70
2022-09-03T22:35:55.912Z,17.70
2022-09-03T22:40:06.638Z,17.70
2022-09-03T22:44:20.954Z,17.70
2022-09-03T22:48:36.843Z,17.70
2022-09-03T22:52:44.314Z,17.60
2022-09-03T22:56:47.199Z,17.60
2022-09-03T23:00:58.559Z,17.50
2022-09-03T23:05:07.444Z,17.40
2022-09-03T23:09:15.400Z,17.40
2022-09-03T23:13:22.430Z,17.40
2022-09-03T23:21:40.712Z,17.30
2022-09-03T23:25:48.172Z,17.20
2022-09-03T23:29:55.286Z,17.20
2022-09-03T23:33:59.620Z,17.20
2022-09-03T23:38:13.278Z,17.20
2022-09-03T23:42:26.453Z,17.20
2022-09-03T23:46:37.545Z,17.10
2022-09-03T23:50:49.067Z,17.10
2022-09-03T23:55:04.021Z,17.10
2022-09-03T23:59:16.215Z,17.10
